createdAt,value
2024-05-09T00:00:44.067Z,16.13
2024-05-09T00:03:47.325Z,16.23
2024-05-09T00:06:50.411Z,16.14
2024-05-09T00:09:53.206Z,15.96
2024-05-09T00:12:55.991Z,15.78
2024-05-09T00:15:59.647Z,15.84
2024-05-09T00:19:02.667Z,15.91
2024-05-09T00:22:05.828Z,16.09
2024-05-09T00:25:08.985Z,15.89
2024-05-09T00:28:12.904Z,16.16
2024-05-09T00:31:16.569Z,16.12
2024-05-09T00:34:19.591Z,15.81
2024-05-09T00:37:22.737Z,15.79
2024-05-09T00:40:35.499Z,15.94
2024-05-09T00:43:42.417Z,15.94
2024-05-09T00:46:45.425Z,15.92
2024-05-09T00:49:48.773Z,16.39
2024-05-09T00:52:54.378Z,16.66
2024-05-09T00:55:58.508Z,16.65
2024-05-09T00:59:01.503Z,16.56
2024-05-09T01:02:05.036Z,16.51
2024-05-09T01:05:08.161Z,16.37
2024-05-09T01:08:12.175Z,16.32
2024-05-09T01:11:17.953Z,16.27
2024-05-09T01:14:21.041Z,16.03
2024-05-09T01:17:25.075Z,16.35
2024-05-09T01:20:37.482Z,16.32
2024-05-09T01:23:45.032Z,16.37
2024-05-09T01:26:48.483Z,16.23
2024-05-09T01:29:51.847Z,16.24
2024-05-09T01:32:55.110Z,16.22
2024-05-09T01:35:58.316Z,16.55
2024-05-09T01:39:01.373Z,16.48
2024-05-09T01:42:04.769Z,16.81
2024-05-09T01:45:09.359Z,17.16
2024-05-09T01:48:12.600Z,16.40
2024-05-09T01:51:15.911Z,16.58
2024-05-09T01:54:19.220Z,16.07
2024-05-09T01:57:22.288Z,15.76
2024-05-09T02:00:36.950Z,16.05
2024-05-09T02:03:46.843Z,16.04
2024-05-09T02:06:49.814Z,16.02
2024-05-09T02:09:53.416Z,16.08
2024-05-09T02:12:56.273Z,16.13
2024-05-09T02:15:59.060Z,16.19
2024-05-09T02:19:02.029Z,16.18
2024-05-09T02:22:04.983Z,16.48
2024-05-09T02:25:07.861Z,16.53
2024-05-09T02:28:10.813Z,16.32
2024-05-09T02:31:13.807Z,16.45
2024-05-09T02:34:16.545Z,16.43
2024-05-09T02:37:19.527Z,16.22
2024-05-09T02:40:29.152Z,16.48
2024-05-09T02:43:39.084Z,16.44
2024-05-09T02:46:41.907Z,16.51
2024-05-09T02:49:44.856Z,16.23
2024-05-09T02:52:47.708Z,16.19
2024-05-09T02:55:51.173Z,16.25
2024-05-09T02:58:54.131Z,16.11
2024-05-09T03:01:57.080Z,16.08
2024-05-09T03:05:00.816Z,15.92
2024-05-09T03:08:04.346Z,16.15
2024-05-09T03:11:07.484Z,16.12
2024-05-09T03:14:10.419Z,16.11
2024-05-09T03:17:13.418Z,16.45
2024-05-09T03:20:23.359Z,16.18
2024-05-09T03:23:27.366Z,15.57
2024-05-09T03:26:30.420Z,15.73
2024-05-09T03:29:33.591Z,15.81
2024-05-09T03:32:36.722Z,15.44
2024-05-09T03:35:39.647Z,15.28
2024-05-09T03:38:42.582Z,15.58
2024-05-09T03:41:45.623Z,15.57
2024-05-09T03:44:48.619Z,15.61
2024-05-09T03:47:52.482Z,15.55
2024-05-09T03:50:55.830Z,15.98
2024-05-09T03:53:59.005Z,16.17
2024-05-09T03:57:02.347Z,15.97
2024-05-09T04:00:11.896Z,15.95
2024-05-09T04:03:20.898Z,16.04
2024-05-09T04:06:25.092Z,16.05
2024-05-09T04:09:27.946Z,16.52
2024-05-09T04:12:30.943Z,16.63
2024-05-09T04:15:34.003Z,16.81
2024-05-09T04:18:37.376Z,17.11
2024-05-09T04:21:40.326Z,17.27
2024-05-09T04:24:43.438Z,17.49
2024-05-09T04:27:46.343Z,17.74
2024-05-09T04:30:53.069Z,17.95
2024-05-09T04:33:56.086Z,17.90
2024-05-09T04:36:59.116Z,18.02
2024-05-09T04:40:02.279Z,18.12
2024-05-09T04:43:06.507Z,17.90
2024-05-09T04:46:09.942Z,17.82
2024-05-09T04:49:13.161Z,17.68
2024-05-09T04:52:16.138Z,17.84
2024-05-09T04:55:18.972Z,18.00
2024-05-09T04:58:22.374Z,18.19
2024-05-09T05:01:25.633Z,18.56
2024-05-09T05:04:29.933Z,18.50
2024-05-09T05:07:32.774Z,18.01
2024-05-09T05:10:36.895Z,18.10
2024-05-09T05:13:41.700Z,18.24
2024-05-09T05:16:44.951Z,17.95
2024-05-09T05:19:49.915Z,17.86
2024-05-09T05:22:53.284Z,17.83
2024-05-09T05:25:57.509Z,17.82
2024-05-09T05:29:01.678Z,17.83
2024-05-09T05:32:05.603Z,18.08
2024-05-09T05:35:09.857Z,18.06
2024-05-09T05:38:13.499Z,18.17
2024-05-09T05:41:16.819Z,17.92
2024-05-09T05:44:24.226Z,18.30
2024-05-09T05:47:30.713Z,18.65
2024-05-09T05:50:38.476Z,19.42
2024-05-09T05:53:44.533Z,18.82
2024-05-09T05:56:47.698Z,19.46
2024-05-09T05:59:53.324Z,19.43
2024-05-09T06:02:56.723Z,20.08
2024-05-09T06:06:03.014Z,19.92
2024-05-09T06:09:06.483Z,19.96
2024-05-09T06:12:09.706Z,20.60
2024-05-09T06:15:13.815Z,20.34
2024-05-09T06:18:17.147Z,20.29
2024-05-09T06:21:21.221Z,20.89
2024-05-09T06:24:24.305Z,20.78
2024-05-09T06:27:27.856Z,21.38
2024-05-09T06:30:42.461Z,21.34
2024-05-09T06:33:46.556Z,21.32
2024-05-09T06:36:49.794Z,21.79
2024-05-09T06:39:52.994Z,21.91
2024-05-09T06:42:57.840Z,21.37
2024-05-09T06:46:03.036Z,21.61
2024-05-09T06:49:08.667Z,21.39
2024-05-09T06:52:14.787Z,21.86
2024-05-09T06:55:26.963Z,22.01
2024-05-09T06:58:55.558Z,21.90
2024-05-09T07:02:03.982Z,21.60
2024-05-09T07:05:07.301Z,21.78
2024-05-09T07:08:14.654Z,22.06
2024-05-09T07:11:19.032Z,22.04
2024-05-09T07:14:25.609Z,21.99
2024-05-09T07:17:31.386Z,22.67
2024-05-09T07:20:35.394Z,22.51
2024-05-09T07:23:39.031Z,21.98
2024-05-09T07:26:42.483Z,22.04
2024-05-09T07:29:45.988Z,23.20
2024-05-09T07:32:50.770Z,22.34
2024-05-09T07:36:03.166Z,22.22
2024-05-09T07:39:10.335Z,22.07
2024-05-09T07:42:55.765Z,22.53
2024-05-09T07:46:51.821Z,22.63
2024-05-09T07:53:33.832Z,22.49
2024-05-09T07:56:13.214Z,22.32
2024-05-09T07:59:17.583Z,22.50
2024-05-09T08:02:21.079Z,23.09
2024-05-09T08:05:28.872Z,23.23
2024-05-09T08:08:35.468Z,23.09
2024-05-09T08:11:41.752Z,22.32
2024-05-09T08:14:45.459Z,22.70
2024-05-09T08:17:50.530Z,22.74
2024-05-09T08:20:54.150Z,23.17
2024-05-09T08:24:01.502Z,22.84
2024-05-09T08:27:05.954Z,22.69
2024-05-09T08:30:18.415Z,22.69
2024-05-09T08:33:37.626Z,23.09
2024-05-09T08:36:42.829Z,22.36
2024-05-09T08:39:47.895Z,22.69
2024-05-09T08:42:56.519Z,22.83
2024-05-09T08:46:02.502Z,22.92
2024-05-09T08:49:07.034Z,22.75
2024-05-09T08:52:14.226Z,22.82
2024-05-09T08:55:17.535Z,22.81
2024-05-09T08:58:24.315Z,22.37
2024-05-09T09:01:32.070Z,22.56
2024-05-09T09:04:39.287Z,22.56
2024-05-09T09:07:48.650Z,22.89
2024-05-09T09:10:54.441Z,22.95
2024-05-09T09:13:57.808Z,23.48
2024-05-09T09:17:00.943Z,23.23
2024-05-09T09:20:04.479Z,23.45
2024-05-09T09:23:08.909Z,24.31
2024-05-09T09:26:16.186Z,23.92
2024-05-09T09:29:21.008Z,23.84
2024-05-09T09:32:29.164Z,23.26
2024-05-09T09:35:32.318Z,23.42
2024-05-09T09:38:38.069Z,23.60
2024-05-09T09:41:46.871Z,23.32
2024-05-09T09:45:01.894Z,23.92
2024-05-09T09:48:14.978Z,23.89
2024-05-09T09:51:18.969Z,23.89
2024-05-09T09:54:29.835Z,24.46
2024-05-09T09:57:43.976Z,23.81
2024-05-09T10:00:47.386Z,23.83
2024-05-09T10:03:50.707Z,23.87
2024-05-09T10:06:59.598Z,23.78
2024-05-09T10:10:03.337Z,24.06
2024-05-09T10:13:08.084Z,24.37
2024-05-09T10:16:22.373Z,24.13
2024-05-09T10:19:26.844Z,24.15
2024-05-09T10:22:31.144Z,23.83
2024-05-09T10:25:35.547Z,23.75
2024-05-09T10:28:43.387Z,24.24
2024-05-09T10:31:48.374Z,24.13
2024-05-09T10:35:00.927Z,24.30
2024-05-09T10:38:07.270Z,23.87
2024-05-09T10:41:11.360Z,24.05
2024-05-09T10:44:16.076Z,23.86
2024-05-09T10:47:23.138Z,23.82
2024-05-09T10:50:29.229Z,24.47
2024-05-09T10:53:44.824Z,24.13
2024-05-09T10:56:56.821Z,24.40
2024-05-09T11:00:00.530Z,24.56
2024-05-09T11:03:04.448Z,25.42
2024-05-09T11:06:09.875Z,24.92
2024-05-09T11:09:13.555Z,24.97
2024-05-09T11:12:16.648Z,25.28
2024-05-09T11:15:19.456Z,24.59
2024-05-09T11:18:28.165Z,24.94
2024-05-09T11:21:32.879Z,25.48
2024-05-09T11:24:36.080Z,24.88
2024-05-09T11:27:42.605Z,24.93
2024-05-09T11:30:46.119Z,24.53
2024-05-09T11:33:49.717Z,24.98
2024-05-09T11:36:53.040Z,25.25
2024-05-09T11:39:56.382Z,25.16
2024-05-09T11:42:59.676Z,25.48
2024-05-09T11:46:03.941Z,25.64
2024-05-09T11:49:16.499Z,25.39
2024-05-09T11:52:19.724Z,25.68
2024-05-09T11:55:27.387Z,25.75
2024-05-09T11:58:34.869Z,26.25
2024-05-09T12:01:38.234Z,26.24
2024-05-09T12:04:41.570Z,25.57
2024-05-09T12:07:44.576Z,25.95
2024-05-09T12:10:47.839Z,25.81
2024-05-09T12:13:50.836Z,25.24
2024-05-09T12:16:54.105Z,26.41
2024-05-09T12:19:57.301Z,25.91
2024-05-09T12:23:02.308Z,25.66
2024-05-09T12:26:05.457Z,25.71
2024-05-09T12:29:08.707Z,26.20
2024-05-09T12:32:11.845Z,26.27
2024-05-09T12:35:15.058Z,26.77
2024-05-09T12:38:18.620Z,26.21
2024-05-09T12:41:21.617Z,26.41
2024-05-09T12:44:24.404Z,26.57
2024-05-09T12:47:27.994Z,26.38
2024-05-09T12:50:33.669Z,25.88
2024-05-09T12:53:37.588Z,27.23
2024-05-09T12:56:41.825Z,27.69
2024-05-09T12:59:44.847Z,27.50
2024-05-09T13:02:47.948Z,27.86
2024-05-09T13:05:52.111Z,26.72
2024-05-09T13:08:55.184Z,26.17
2024-05-09T13:11:58.340Z,26.93
2024-05-09T13:15:01.292Z,26.92
2024-05-09T13:18:05.316Z,27.72
2024-05-09T13:21:08.940Z,27.30
2024-05-09T13:24:11.790Z,27.31
2024-05-09T13:27:14.793Z,27.04
2024-05-09T13:30:25.934Z,27.05
2024-05-09T13:33:33.671Z,27.39
2024-05-09T13:36:36.799Z,27.49
2024-05-09T13:39:39.701Z,28.22
2024-05-09T13:42:42.558Z,28.38
2024-05-09T13:45:45.962Z,28.63
2024-05-09T13:48:49.383Z,27.82
2024-05-09T13:51:52.553Z,27.70
2024-05-09T13:54:55.742Z,27.51
2024-05-09T13:57:59.287Z,27.50
2024-05-09T14:01:02.690Z,28.28
2024-05-09T14:04:06.340Z,28.42
2024-05-09T14:07:10.792Z,28.93
2024-05-09T14:10:22.519Z,28.83
2024-05-09T14:13:31.957Z,28.58
2024-05-09T14:16:40.122Z,29.66
2024-05-09T14:19:43.396Z,29.79
2024-05-09T14:22:46.540Z,29.61
2024-05-09T14:25:53.172Z,29.45
2024-05-09T14:28:56.456Z,29.34
2024-05-09T14:32:00.043Z,29.57
2024-05-09T14:35:04.167Z,29.76
2024-05-09T14:38:10.284Z,28.93
2024-05-09T14:41:13.903Z,28.64
2024-05-09T14:44:16.979Z,27.80
2024-05-09T14:47:20.181Z,27.29
2024-05-09T14:50:32.317Z,27.19
2024-05-09T14:53:39.899Z,27.38
2024-05-09T14:56:44.031Z,27.36
2024-05-09T14:59:46.991Z,26.78
2024-05-09T15:02:50.034Z,26.50
2024-05-09T15:05:53.335Z,26.92
2024-05-09T15:08:57.642Z,26.72
2024-05-09T15:12:00.637Z,26.85
2024-05-09T15:15:04.318Z,26.42
2024-05-09T15:18:07.724Z,26.44
2024-05-09T15:21:11.395Z,26.59
2024-05-09T15:24:15.102Z,26.39
2024-05-09T15:27:20.104Z,26.36
2024-05-09T15:33:31.219Z,26.39
2024-05-09T15:36:34.690Z,26.08
2024-05-09T15:39:38.072Z,26.01
2024-05-09T15:42:43.037Z,26.06
2024-05-09T15:45:46.462Z,26.26
2024-05-09T15:48:49.813Z,25.89
2024-05-09T15:51:52.935Z,25.71
2024-05-09T15:54:56.077Z,25.97
2024-05-09T15:58:04.145Z,25.81
2024-05-09T16:01:07.823Z,25.66
2024-05-09T16:04:11.739Z,25.79
2024-05-09T16:07:15.666Z,25.83
2024-05-09T16:10:23.229Z,25.67
2024-05-09T16:13:29.299Z,25.74
2024-05-09T16:16:32.660Z,25.54
2024-05-09T16:19:35.707Z,25.58
2024-05-09T16:22:38.589Z,25.33
2024-05-09T16:25:46.316Z,25.49
2024-05-09T16:28:49.441Z,25.72
2024-05-09T16:31:52.529Z,25.58
2024-05-09T16:34:55.571Z,25.91
2024-05-09T16:37:58.721Z,25.54
2024-05-09T16:41:01.747Z,25.66
2024-05-09T16:44:04.780Z,25.75
2024-05-09T16:47:08.096Z,25.62
2024-05-09T16:50:12.925Z,25.37
2024-05-09T16:56:24.038Z,25.23
2024-05-09T16:59:27.231Z,25.39
2024-05-09T17:02:31.040Z,24.94
2024-05-09T17:05:34.466Z,25.10
2024-05-09T17:08:38.094Z,24.70
2024-05-09T17:11:41.145Z,24.82
2024-05-09T17:14:44.159Z,24.58
2024-05-09T17:17:47.929Z,24.52
2024-05-09T17:20:52.612Z,24.36
2024-05-09T17:23:56.043Z,23.98
2024-05-09T17:27:00.353Z,24.11
2024-05-09T17:30:06.352Z,24.02
2024-05-09T17:33:12.150Z,23.97
2024-05-09T17:36:15.990Z,23.71
2024-05-09T17:39:18.888Z,23.58
2024-05-09T17:42:21.758Z,23.71
2024-05-09T17:45:24.753Z,23.71
2024-05-09T17:48:27.807Z,23.66
2024-05-09T17:51:34.266Z,23.41
2024-05-09T17:54:37.323Z,23.08
2024-05-09T17:57:40.445Z,23.00
2024-05-09T18:00:43.709Z,23.19
2024-05-09T18:03:48.657Z,23.02
2024-05-09T18:06:51.783Z,22.72
2024-05-09T18:09:54.800Z,22.87
2024-05-09T18:12:57.943Z,22.65
2024-05-09T18:16:01.681Z,22.69
2024-05-09T18:19:04.983Z,22.59
2024-05-09T18:22:08.666Z,22.59
2024-05-09T18:25:11.763Z,22.38
2024-05-09T18:28:16.814Z,22.51
2024-05-09T18:31:21.173Z,22.41
2024-05-09T18:34:24.372Z,22.40
2024-05-09T18:37:27.607Z,22.31
2024-05-09T18:40:34.933Z,22.40
2024-05-09T18:43:45.048Z,22.11
2024-05-09T18:46:51.428Z,21.92
2024-05-09T18:49:54.325Z,21.96
2024-05-09T18:52:57.446Z,21.94
2024-05-09T18:56:00.922Z,21.82
2024-05-09T18:59:04.390Z,21.77
2024-05-09T19:02:07.635Z,21.81
2024-05-09T19:05:11.283Z,21.77
2024-05-09T19:08:15.941Z,21.72
2024-05-09T19:11:19.044Z,21.77
2024-05-09T19:14:22.529Z,21.76
2024-05-09T19:17:28.456Z,21.66
2024-05-09T19:20:35.236Z,22.05
2024-05-09T19:23:46.839Z,21.63
2024-05-09T19:26:56.171Z,21.67
2024-05-09T19:29:59.207Z,21.68
2024-05-09T19:33:02.580Z,21.53
2024-05-09T19:36:06.990Z,21.44
2024-05-09T19:39:10.078Z,21.39
2024-05-09T19:42:13.441Z,21.59
2024-05-09T19:45:16.750Z,21.57
2024-05-09T19:48:21.510Z,21.57
2024-05-09T19:51:24.737Z,21.36
2024-05-09T19:54:28.116Z,21.35
2024-05-09T19:57:31.323Z,21.21
2024-05-09T20:00:36.998Z,21.35
2024-05-09T20:03:42.296Z,21.15
2024-05-09T20:06:46.493Z,21.28
2024-05-09T20:09:50.586Z,21.13
2024-05-09T20:12:54.092Z,21.13
2024-05-09T20:15:57.548Z,21.05
2024-05-09T20:19:01.679Z,21.03
2024-05-09T20:22:05.679Z,20.87
2024-05-09T20:25:09.422Z,21.11
2024-05-09T20:28:13.499Z,21.02
2024-05-09T20:31:21.263Z,21.25
2024-05-09T20:34:24.507Z,21.22
2024-05-09T20:37:27.904Z,21.21
2024-05-09T20:40:35.084Z,21.34
2024-05-09T20:43:41.252Z,21.51
2024-05-09T20:46:45.278Z,21.25
2024-05-09T20:49:48.370Z,21.24
2024-05-09T20:52:51.282Z,21.30
2024-05-09T20:55:54.686Z,21.37
2024-05-09T20:58:58.179Z,21.25
2024-05-09T21:02:01.128Z,21.34
2024-05-09T21:05:04.877Z,21.46
2024-05-09T21:08:08.212Z,21.69
2024-05-09T21:11:11.623Z,21.61
2024-05-09T21:14:14.466Z,21.47
2024-05-09T21:17:17.426Z,21.24
2024-05-09T21:20:24.228Z,21.45
2024-05-09T21:23:32.993Z,21.40
2024-05-09T21:26:37.432Z,21.33
2024-05-09T21:29:41.236Z,21.39
2024-05-09T21:32:44.172Z,21.03
2024-05-09T21:35:47.076Z,21.66
2024-05-09T21:38:50.034Z,21.65
2024-05-09T21:41:53.618Z,21.06
2024-05-09T21:44:56.492Z,21.45
2024-05-09T21:47:59.687Z,21.63
2024-05-09T21:51:02.724Z,21.47
2024-05-09T21:54:05.724Z,21.49
2024-05-09T21:57:10.224Z,21.51
2024-05-09T22:00:28.256Z,21.28
2024-05-09T22:03:38.294Z,20.88
2024-05-09T22:06:41.396Z,19.37
2024-05-09T22:09:45.584Z,19.72
2024-05-09T22:12:48.740Z,19.47
2024-05-09T22:15:51.798Z,18.91
2024-05-09T22:18:54.855Z,19.16
2024-05-09T22:21:58.040Z,19.13
2024-05-09T22:25:01.089Z,18.72
2024-05-09T22:28:05.148Z,19.06
2024-05-09T22:31:09.089Z,19.27
2024-05-09T22:34:12.164Z,18.88
2024-05-09T22:37:15.247Z,18.38
2024-05-09T22:40:28.248Z,18.09
2024-05-09T22:43:40.232Z,18.01
2024-05-09T22:46:43.468Z,17.71
2024-05-09T22:49:46.410Z,17.76
2024-05-09T22:52:49.286Z,17.73
2024-05-09T22:55:52.274Z,17.12
2024-05-09T22:58:56.175Z,17.47
2024-05-09T23:01:59.342Z,17.55
2024-05-09T23:05:02.865Z,17.54
2024-05-09T23:08:05.983Z,17.26
2024-05-09T23:11:09.487Z,17.28
2024-05-09T23:14:12.566Z,17.39
2024-05-09T23:17:15.481Z,17.16
2024-05-09T23:20:29.614Z,17.05
2024-05-09T23:23:39.661Z,17.06
2024-05-09T23:26:43.611Z,17.05
2024-05-09T23:29:47.516Z,16.98
2024-05-09T23:32:50.504Z,16.76
2024-05-09T23:35:53.598Z,16.67
2024-05-09T23:38:56.538Z,16.78
2024-05-09T23:41:59.474Z,16.59
2024-05-09T23:45:02.490Z,16.28
2024-05-09T23:48:06.467Z,15.58
2024-05-09T23:51:09.575Z,15.86
2024-05-09T23:54:12.483Z,15.60
2024-05-09T23:57:15.393Z,15.91
